sensor_id;sensor_type;location;lat;lon;timestamp;pressure;altitude;pressure_sealevel;temperature;humidity
64080;BME280;51042;49.696;10.808;2023-05-22T00:00:46;98132.25;;;15.45;100.00
64080;BME280;51042;49.696;10.808;2023-05-22T00:03:11;98131.66;;;15.41;100.00
64080;BME280;51042;49.696;10.808;2023-05-22T00:05:36;98132.13;;;15.39;100.00
64080;BME280;51042;49.696;10.808;2023-05-22T00:08:03;98130.03;;;15.34;100.00
64080;BME280;51042;49.696;10.808;2023-05-22T00:10:29;98125.44;;;15.31;100.00
64080;BME280;51042;49.696;10.808;2023-05-22T00:12:55;98132.69;;;15.29;100.00
64080;BME280;51042;49.696;10.808;2023-05-22T00:15:20;98120.47;;;15.21;100.00
64080;BME280;51042;49.696;10.808;2023-05-22T00:17:45;98123.41;;;15.17;100.00
64080;BME280;51042;49.696;10.808;2023-05-22T00:20:11;98128.66;;;15.15;100.00
64080;BME280;51042;49.696;10.808;2023-05-22T00:22:36;98120.09;;;15.13;100.00
64080;BME280;51042;49.696;10.808;2023-05-22T00:25:02;98124.53;;;15.10;100.00
64080;BME280;51042;49.696;10.808;2023-05-22T00:27:29;98126.22;;;15.08;100.00
64080;BME280;51042;49.696;10.808;2023-05-22T00:29:54;98122.59;;;15.02;100.00
64080;BME280;51042;49.696;10.808;2023-05-22T00:32:20;98116.03;;;14.99;100.00
64080;BME280;51042;49.696;10.808;2023-05-22T00:34:45;98118.03;;;14.99;100.00
64080;BME280;51042;49.696;10.808;2023-05-22T00:37:10;98117.44;;;14.95;100.00
64080;BME280;51042;49.696;10.808;2023-05-22T00:39:36;98113.81;;;14.89;100.00
64080;BME280;51042;49.696;10.808;2023-05-22T00:42:02;98112.72;;;14.86;100.00
64080;BME280;51042;49.696;10.808;2023-05-22T00:44:28;98110.94;;;14.83;100.00
64080;BME280;51042;49.696;10.808;2023-05-22T00:46:53;98105.56;;;14.80;100.00
64080;BME280;51042;49.696;10.808;2023-05-22T00:49:18;98110.97;;;14.74;100.00
64080;BME280;51042;49.696;10.808;2023-05-22T00:51:44;98109.31;;;14.67;100.00
64080;BME280;51042;49.696;10.808;2023-05-22T00:54:09;98107.50;;;14.64;100.00
64080;BME280;51042;49.696;10.808;2023-05-22T00:56:37;98111.66;;;14.60;100.00
64080;BME280;51042;49.696;10.808;2023-05-22T00:59:02;98114.13;;;14.58;100.00
64080;BME280;51042;49.696;10.808;2023-05-22T01:01:28;98107.84;;;14.57;100.00
64080;BME280;51042;49.696;10.808;2023-05-22T01:03:58;98108.31;;;14.56;100.00
64080;BME280;51042;49.696;10.808;2023-05-22T01:06:25;98118.59;;;14.55;100.00
64080;BME280;51042;49.696;10.808;2023-05-22T01:08:51;98107.72;;;14.52;100.00
64080;BME280;51042;49.696;10.808;2023-05-22T01:14:41;98107.31;;;14.44;100.00
64080;BME280;51042;49.696;10.808;2023-05-22T01:22:50;98111.59;;;14.36;100.00
64080;BME280;51042;49.696;10.808;2023-05-22T01:30:54;98103.06;;;14.25;100.00
64080;BME280;51042;49.696;10.808;2023-05-22T01:33:32;98108.94;;;14.18;100.00
64080;BME280;51042;49.696;10.808;2023-05-22T01:36:05;98107.09;;;14.15;100.00
64080;BME280;51042;49.696;10.808;2023-05-22T01:38:32;98104.22;;;14.09;100.00
64080;BME280;51042;49.696;10.808;2023-05-22T01:40:58;98104.84;;;14.04;100.00
64080;BME280;51042;49.696;10.808;2023-05-22T01:43:24;98112.03;;;14.02;100.00
64080;BME280;51042;49.696;10.808;2023-05-22T01:45:50;98109.75;;;14.00;100.00
64080;BME280;51042;49.696;10.808;2023-05-22T01:48:16;98108.69;;;13.98;100.00
64080;BME280;51042;49.696;10.808;2023-05-22T01:50:41;98105.63;;;13.96;100.00
64080;BME280;51042;49.696;10.808;2023-05-22T01:53:11;98108.69;;;13.88;100.00
64080;BME280;51042;49.696;10.808;2023-05-22T01:58:11;98114.09;;;13.83;100.00
64080;BME280;51042;49.696;10.808;2023-05-22T02:00:53;98111.03;;;13.81;100.00
64080;BME280;51042;49.696;10.808;2023-05-22T02:03:21;98108.28;;;13.81;100.00
64080;BME280;51042;49.696;10.808;2023-05-22T02:05:51;98121.47;;;13.77;100.00
64080;BME280;51042;49.696;10.808;2023-05-22T02:08:18;98116.44;;;13.66;100.00
64080;BME280;51042;49.696;10.808;2023-05-22T02:10:44;98113.06;;;13.62;100.00
64080;BME280;51042;49.696;10.808;2023-05-22T02:13:10;98112.00;;;13.60;100.00
64080;BME280;51042;49.696;10.808;2023-05-22T02:15:36;98110.63;;;13.55;100.00
64080;BME280;51042;49.696;10.808;2023-05-22T02:18:02;98117.81;;;13.53;100.00
64080;BME280;51042;49.696;10.808;2023-05-22T02:20:28;98112.00;;;13.51;100.00
64080;BME280;51042;49.696;10.808;2023-05-22T02:22:53;98120.16;;;13.45;100.00
64080;BME280;51042;49.696;10.808;2023-05-22T02:25:18;98111.56;;;13.43;100.00
64080;BME280;51042;49.696;10.808;2023-05-22T02:27:45;98114.00;;;13.41;100.00
64080;BME280;51042;49.696;10.808;2023-05-22T02:30:12;98108.06;;;13.33;100.00
64080;BME280;51042;49.696;10.808;2023-05-22T02:32:39;98100.41;;;13.28;100.00
64080;BME280;51042;49.696;10.808;2023-05-22T02:35:05;98112.50;;;13.22;100.00
64080;BME280;51042;49.696;10.808;2023-05-22T02:37:31;98108.97;;;13.12;100.00
64080;BME280;51042;49.696;10.808;2023-05-22T02:39:56;98119.50;;;13.04;100.00
64080;BME280;51042;49.696;10.808;2023-05-22T02:42:22;98113.69;;;13.02;100.00
64080;BME280;51042;49.696;10.808;2023-05-22T02:44:47;98116.44;;;13.02;100.00
64080;BME280;51042;49.696;10.808;2023-05-22T02:47:13;98114.59;;;12.99;100.00
64080;BME280;51042;49.696;10.808;2023-05-22T02:49:38;98112.31;;;12.98;100.00
64080;BME280;51042;49.696;10.808;2023-05-22T02:52:03;98107.56;;;12.98;100.00
64080;BME280;51042;49.696;10.808;2023-05-22T02:54:29;98112.31;;;12.98;100.00
64080;BME280;51042;49.696;10.808;2023-05-22T02:56:54;98108.91;;;12.94;100.00
64080;BME280;51042;49.696;10.808;2023-05-22T02:59:19;98111.84;;;12.90;100.00
64080;BME280;51042;49.696;10.808;2023-05-22T03:01:45;98105.88;;;12.92;100.00
64080;BME280;51042;49.696;10.808;2023-05-22T03:04:12;98115.69;;;12.93;100.00
64080;BME280;51042;49.696;10.808;2023-05-22T03:06:37;98104.47;;;12.87;100.00
64080;BME280;51042;49.696;10.808;2023-05-22T03:09:03;98112.72;;;12.87;100.00
64080;BME280;51042;49.696;10.808;2023-05-22T03:11:32;98112.44;;;12.85;100.00
64080;BME280;51042;49.696;10.808;2023-05-22T03:13:58;98120.84;;;12.82;100.00
64080;BME280;51042;49.696;10.808;2023-05-22T03:16:23;98110.44;;;12.77;100.00
64080;BME280;51042;49.696;10.808;2023-05-22T03:18:49;98116.88;;;12.74;100.00
64080;BME280;51042;49.696;10.808;2023-05-22T03:21:14;98118.84;;;12.73;100.00
64080;BME280;51042;49.696;10.808;2023-05-22T03:23:40;98124.66;;;12.75;100.00
64080;BME280;51042;49.696;10.808;2023-05-22T03:26:05;98118.41;;;12.75;100.00
64080;BME280;51042;49.696;10.808;2023-05-22T03:28:30;98125.91;;;12.74;100.00
64080;BME280;51042;49.696;10.808;2023-05-22T03:30:56;98125.56;;;12.72;100.00
64080;BME280;51042;49.696;10.808;2023-05-22T03:33:21;98127.56;;;12.72;100.00
64080;BME280;51042;49.696;10.808;2023-05-22T03:35:46;98117.63;;;12.74;100.00
64080;BME280;51042;49.696;10.808;2023-05-22T03:38:12;98124.53;;;12.79;100.00
64080;BME280;51042;49.696;10.808;2023-05-22T03:40:37;98128.31;;;12.81;100.00
64080;BME280;51042;49.696;10.808;2023-05-22T03:43:02;98132.91;;;12.75;100.00
64080;BME280;51042;49.696;10.808;2023-05-22T03:45:28;98125.44;;;12.85;100.00
64080;BME280;51042;49.696;10.808;2023-05-22T03:47:53;98129.28;;;12.96;100.00
64080;BME280;51042;49.696;10.808;2023-05-22T03:50:18;98127.63;;;13.08;100.00
64080;BME280;51042;49.696;10.808;2023-05-22T03:52:43;98137.91;;;13.17;100.00
64080;BME280;51042;49.696;10.808;2023-05-22T03:55:09;98126.72;;;13.20;100.00
64080;BME280;51042;49.696;10.808;2023-05-22T03:57:34;98134.53;;;13.31;100.00
64080;BME280;51042;49.696;10.808;2023-05-22T04:00:00;98132.56;;;13.40;100.00
64080;BME280;51042;49.696;10.808;2023-05-22T04:02:33;98126.09;;;13.53;100.00
64080;BME280;51042;49.696;10.808;2023-05-22T04:04:58;98130.53;;;13.59;100.00
64080;BME280;51042;49.696;10.808;2023-05-22T04:07:24;98130.34;;;13.72;100.00
64080;BME280;51042;49.696;10.808;2023-05-22T04:09:49;98131.88;;;13.82;100.00
64080;BME280;51042;49.696;10.808;2023-05-22T04:12:15;98131.81;;;14.00;100.00
64080;BME280;51042;49.696;10.808;2023-05-22T04:14:40;98127.78;;;14.19;100.00
64080;BME280;51042;49.696;10.808;2023-05-22T04:17:05;98132.31;;;14.74;100.00
64080;BME280;51042;49.696;10.808;2023-05-22T04:19:30;98137.00;;;16.12;100.00
64080;BME280;51042;49.696;10.808;2023-05-22T04:21:56;98136.41;;;17.53;91.33
64080;BME280;51042;49.696;10.808;2023-05-22T04:24:22;98139.97;;;18.68;80.61
64080;BME280;51042;49.696;10.808;2023-05-22T04:26:47;98141.13;;;19.52;75.87
64080;BME280;51042;49.696;10.808;2023-05-22T04:29:13;98136.94;;;20.41;70.59
64080;BME280;51042;49.696;10.808;2023-05-22T04:31:40;98142.22;;;20.83;68.58
64080;BME280;51042;49.696;10.808;2023-05-22T04:34:06;98136.66;;;21.46;65.48
64080;BME280;51042;49.696;10.808;2023-05-22T04:36:35;98146.00;;;22.36;62.45
64080;BME280;51042;49.696;10.808;2023-05-22T04:39:02;98146.44;;;22.76;60.67
64080;BME280;51042;49.696;10.808;2023-05-22T04:41:28;98149.13;;;22.87;59.93
64080;BME280;51042;49.696;10.808;2023-05-22T04:43:54;98148.84;;;23.34;58.53
64080;BME280;51042;49.696;10.808;2023-05-22T04:46:19;98146.88;;;23.85;56.62
64080;BME280;51042;49.696;10.808;2023-05-22T04:48:45;98141.13;;;24.47;55.09
64080;BME280;51042;49.696;10.808;2023-05-22T04:51:11;98151.34;;;24.89;53.54
64080;BME280;51042;49.696;10.808;2023-05-22T04:53:36;98152.97;;;25.37;52.21
64080;BME280;51042;49.696;10.808;2023-05-22T04:56:02;98152.84;;;25.56;51.38
64080;BME280;51042;49.696;10.808;2023-05-22T04:58:28;98157.47;;;26.00;49.92
64080;BME280;51042;49.696;10.808;2023-05-22T05:00:53;98160.97;;;26.27;49.10
64080;BME280;51042;49.696;10.808;2023-05-22T05:03:21;98160.13;;;26.61;48.77
64080;BME280;51042;49.696;10.808;2023-05-22T05:05:47;98153.53;;;26.79;48.08
64080;BME280;51042;49.696;10.808;2023-05-22T05:08:12;98152.94;;;26.52;48.14
64080;BME280;51042;49.696;10.808;2023-05-22T05:10:37;98154.44;;;26.53;48.51
64080;BME280;51042;49.696;10.808;2023-05-22T05:13:02;98162.41;;;27.11;47.52
64080;BME280;51042;49.696;10.808;2023-05-22T05:15:28;98152.16;;;27.29;46.88
64080;BME280;51042;49.696;10.808;2023-05-22T05:17:53;98154.63;;;26.97;47.35
64080;BME280;51042;49.696;10.808;2023-05-22T05:20:19;98156.84;;;27.55;46.48
64080;BME280;51042;49.696;10.808;2023-05-22T05:22:45;98155.03;;;27.73;45.93
64080;BME280;51042;49.696;10.808;2023-05-22T05:25:10;98152.84;;;27.94;45.44
64080;BME280;51042;49.696;10.808;2023-05-22T05:27:36;98151.00;;;28.04;45.00
64080;BME280;51042;49.696;10.808;2023-05-22T05:30:01;98155.50;;;28.07;45.25
64080;BME280;51042;49.696;10.808;2023-05-22T05:32:28;98147.50;;;28.57;44.31
64080;BME280;51042;49.696;10.808;2023-05-22T05:34:54;98151.03;;;29.18;43.11
64080;BME280;51042;49.696;10.808;2023-05-22T05:37:20;98155.56;;;29.76;42.14
64080;BME280;51042;49.696;10.808;2023-05-22T05:39:46;98154.59;;;29.81;41.86
64080;BME280;51042;49.696;10.808;2023-05-22T05:42:11;98155.34;;;29.82;41.99
64080;BME280;51042;49.696;10.808;2023-05-22T05:44:36;98152.50;;;29.89;41.00
64080;BME280;51042;49.696;10.808;2023-05-22T05:47:02;98155.34;;;29.82;42.03
64080;BME280;51042;49.696;10.808;2023-05-22T05:49:27;98158.69;;;30.03;41.13
64080;BME280;51042;49.696;10.808;2023-05-22T05:51:52;98159.09;;;30.24;41.20
64080;BME280;51042;49.696;10.808;2023-05-22T05:54:18;98159.91;;;30.42;40.90
64080;BME280;51042;49.696;10.808;2023-05-22T05:56:43;98158.91;;;30.55;40.10
64080;BME280;51042;49.696;10.808;2023-05-22T05:59:08;98155.47;;;30.81;39.97
64080;BME280;51042;49.696;10.808;2023-05-22T06:01:34;98159.66;;;31.39;38.98
64080;BME280;51042;49.696;10.808;2023-05-22T06:04:00;98159.97;;;31.60;38.26
64080;BME280;51042;49.696;10.808;2023-05-22T06:06:29;98157.06;;;31.51;38.49
64080;BME280;51042;49.696;10.808;2023-05-22T06:09:00;98160.22;;;31.38;38.57
64080;BME280;51042;49.696;10.808;2023-05-22T06:11:26;98153.97;;;30.80;39.04
64080;BME280;51042;49.696;10.808;2023-05-22T06:13:52;98145.34;;;29.33;41.29
64080;BME280;51042;49.696;10.808;2023-05-22T06:16:17;98146.03;;;27.89;43.41
64080;BME280;51042;49.696;10.808;2023-05-22T06:18:43;98148.78;;;26.95;45.04
64080;BME280;51042;49.696;10.808;2023-05-22T06:21:10;98140.97;;;26.59;46.58
64080;BME280;51042;49.696;10.808;2023-05-22T06:23:35;98147.81;;;26.71;44.68
64080;BME280;51042;49.696;10.808;2023-05-22T06:26:01;98138.91;;;26.60;45.56
64080;BME280;51042;49.696;10.808;2023-05-22T06:28:26;98141.13;;;27.03;44.87
64080;BME280;51042;49.696;10.808;2023-05-22T06:30:51;98136.25;;;27.39;42.36
64080;BME280;51042;49.696;10.808;2023-05-22T06:33:16;98145.47;;;27.40;43.10
64080;BME280;51042;49.696;10.808;2023-05-22T06:35:42;98142.28;;;27.43;44.82
64080;BME280;51042;49.696;10.808;2023-05-22T06:38:07;98134.81;;;27.10;45.15
64080;BME280;51042;49.696;10.808;2023-05-22T06:40:32;98149.50;;;25.31;48.40
64080;BME280;51042;49.696;10.808;2023-05-22T06:42:58;98143.78;;;23.88;52.18
64080;BME280;51042;49.696;10.808;2023-05-22T06:45:23;98133.72;;;23.18;54.79
64080;BME280;51042;49.696;10.808;2023-05-22T06:47:52;98138.41;;;22.31;58.25
64080;BME280;51042;49.696;10.808;2023-05-22T06:50:18;98141.22;;;21.96;59.50
64080;BME280;51042;49.696;10.808;2023-05-22T06:52:44;98142.50;;;21.89;59.89
64080;BME280;51042;49.696;10.808;2023-05-22T06:55:09;98144.38;;;21.76;61.05
64080;BME280;51042;49.696;10.808;2023-05-22T06:57:35;98147.88;;;21.82;60.46
64080;BME280;51042;49.696;10.808;2023-05-22T07:00:00;98140.78;;;21.86;61.03
64080;BME280;51042;49.696;10.808;2023-05-22T07:02:25;98142.22;;;21.93;60.97
64080;BME280;51042;49.696;10.808;2023-05-22T07:04:51;98143.78;;;21.88;61.02
64080;BME280;51042;49.696;10.808;2023-05-22T07:07:17;98147.94;;;21.76;60.88
64080;BME280;51042;49.696;10.808;2023-05-22T07:09:42;98147.53;;;21.55;61.67
64080;BME280;51042;49.696;10.808;2023-05-22T07:12:08;98146.09;;;21.43;61.78
64080;BME280;51042;49.696;10.808;2023-05-22T07:14:33;98148.09;;;21.48;61.79
64080;BME280;51042;49.696;10.808;2023-05-22T07:16:59;98153.97;;;21.86;61.18
64080;BME280;51042;49.696;10.808;2023-05-22T07:19:24;98149.16;;;21.86;60.26
64080;BME280;51042;49.696;10.808;2023-05-22T07:21:49;98150.50;;;22.15;60.31
64080;BME280;51042;49.696;10.808;2023-05-22T07:24:15;98143.81;;;22.24;59.83
64080;BME280;51042;49.696;10.808;2023-05-22T07:26:40;98138.97;;;22.24;59.43
64080;BME280;51042;49.696;10.808;2023-05-22T07:29:14;98155.84;;;22.13;59.63
64080;BME280;51042;49.696;10.808;2023-05-22T07:31:39;98140.34;;;22.42;59.45
64080;BME280;51042;49.696;10.808;2023-05-22T07:34:06;98141.56;;;22.52;58.72
64080;BME280;51042;49.696;10.808;2023-05-22T07:36:31;98142.75;;;22.87;58.01
64080;BME280;51042;49.696;10.808;2023-05-22T07:38:58;98145.41;;;23.22;57.04
64080;BME280;51042;49.696;10.808;2023-05-22T07:41:24;98141.69;;;22.90;58.81
64080;BME280;51042;49.696;10.808;2023-05-22T07:43:51;98146.81;;;23.10;57.82
64080;BME280;51042;49.696;10.808;2023-05-22T07:46:16;98141.19;;;22.91;58.63
64080;BME280;51042;49.696;10.808;2023-05-22T07:48:41;98132.72;;;22.72;57.79
64080;BME280;51042;49.696;10.808;2023-05-22T07:51:07;98134.28;;;22.68;57.63
64080;BME280;51042;49.696;10.808;2023-05-22T07:53:33;98138.97;;;23.27;56.52
64080;BME280;51042;49.696;10.808;2023-05-22T07:55:58;98142.63;;;23.41;56.86
64080;BME280;51042;49.696;10.808;2023-05-22T07:58:23;98135.59;;;23.90;56.75
64080;BME280;51042;49.696;10.808;2023-05-22T08:00:49;98137.13;;;23.54;55.71
64080;BME280;51042;49.696;10.808;2023-05-22T08:03:14;98138.31;;;23.96;55.43
64080;BME280;51042;49.696;10.808;2023-05-22T08:05:39;98145.53;;;23.54;55.00
64080;BME280;51042;49.696;10.808;2023-05-22T08:08:05;98137.13;;;23.91;54.23
64080;BME280;51042;49.696;10.808;2023-05-22T08:10:30;98143.56;;;23.49;54.92
64080;BME280;51042;49.696;10.808;2023-05-22T08:12:55;98133.94;;;23.01;56.17
64080;BME280;51042;49.696;10.808;2023-05-22T08:15:22;98140.91;;;23.13;56.11
64080;BME280;51042;49.696;10.808;2023-05-22T08:17:47;98139.38;;;23.37;55.14
64080;BME280;51042;49.696;10.808;2023-05-22T08:20:13;98137.88;;;23.54;55.30
64080;BME280;51042;49.696;10.808;2023-05-22T08:22:38;98134.47;;;23.99;53.52
64080;BME280;51042;49.696;10.808;2023-05-22T08:25:04;98133.56;;;23.91;53.67
64080;BME280;51042;49.696;10.808;2023-05-22T08:27:30;98136.63;;;23.31;54.59
64080;BME280;51042;49.696;10.808;2023-05-22T08:29:55;98133.41;;;23.46;54.28
64080;BME280;51042;49.696;10.808;2023-05-22T08:32:21;98137.25;;;23.43;54.73
64080;BME280;51042;49.696;10.808;2023-05-22T08:34:46;98135.91;;;23.87;53.97
64080;BME280;51042;49.696;10.808;2023-05-22T08:37:11;98137.88;;;23.92;53.50
64080;BME280;51042;49.696;10.808;2023-05-22T08:39:40;98137.31;;;24.31;52.15
64080;BME280;51042;49.696;10.808;2023-05-22T08:42:05;98130.22;;;23.92;52.83
64080;BME280;51042;49.696;10.808;2023-05-22T08:44:32;98125.53;;;24.32;52.40
64080;BME280;51042;49.696;10.808;2023-05-22T08:46:59;98125.72;;;24.79;51.44
64080;BME280;51042;49.696;10.808;2023-05-22T08:49:25;98130.63;;;25.18;50.31
64080;BME280;51042;49.696;10.808;2023-05-22T08:51:55;98121.00;;;25.14;50.55
64080;BME280;51042;49.696;10.808;2023-05-22T08:54:27;98128.88;;;25.15;51.40
64080;BME280;51042;49.696;10.808;2023-05-22T08:56:53;98126.50;;;25.19;50.16
64080;BME280;51042;49.696;10.808;2023-05-22T08:59:19;98119.53;;;25.73;49.46
64080;BME280;51042;49.696;10.808;2023-05-22T09:01:45;98118.44;;;25.63;48.56
64080;BME280;51042;49.696;10.808;2023-05-22T09:04:11;98111.59;;;24.98;50.09
64080;BME280;51042;49.696;10.808;2023-05-22T09:06:37;98110.81;;;24.58;50.79
64080;BME280;51042;49.696;10.808;2023-05-22T09:09:02;98111.91;;;25.34;50.83
64080;BME280;51042;49.696;10.808;2023-05-22T09:11:28;98100.53;;;25.40;49.60
64080;BME280;51042;49.696;10.808;2023-05-22T09:14:04;98105.16;;;25.64;48.86
64080;BME280;51042;49.696;10.808;2023-05-22T09:16:31;98104.22;;;25.35;48.26
64080;BME280;51042;49.696;10.808;2023-05-22T09:18:56;98098.69;;;25.55;48.80
64080;BME280;51042;49.696;10.808;2023-05-22T09:21:25;98106.44;;;26.17;46.42
64080;BME280;51042;49.696;10.808;2023-05-22T09:23:51;98110.97;;;25.79;47.29
64080;BME280;51042;49.696;10.808;2023-05-22T09:26:17;98106.00;;;25.92;47.42
64080;BME280;51042;49.696;10.808;2023-05-22T09:28:43;98103.97;;;25.93;47.46
64080;BME280;51042;49.696;10.808;2023-05-22T09:31:10;98110.91;;;25.92;47.86
64080;BME280;51042;49.696;10.808;2023-05-22T09:33:35;98104.59;;;25.99;45.72
64080;BME280;51042;49.696;10.808;2023-05-22T09:36:01;98107.28;;;25.71;46.32
64080;BME280;51042;49.696;10.808;2023-05-22T09:38:27;98099.72;;;25.99;45.94
64080;BME280;51042;49.696;10.808;2023-05-22T09:40:54;98098.03;;;26.38;45.06
64080;BME280;51042;49.696;10.808;2023-05-22T09:43:20;98093.16;;;25.97;45.93
64080;BME280;51042;49.696;10.808;2023-05-22T09:45:54;98094.59;;;25.90;46.08
64080;BME280;51042;49.696;10.808;2023-05-22T09:48:27;98096.47;;;26.29;44.61
64080;BME280;51042;49.696;10.808;2023-05-22T09:50:57;98093.13;;;26.18;46.13
64080;BME280;51042;49.696;10.808;2023-05-22T09:53:25;98090.38;;;26.67;44.13
64080;BME280;51042;49.696;10.808;2023-05-22T09:55:53;98079.34;;;26.76;44.65
64080;BME280;51042;49.696;10.808;2023-05-22T09:58:20;98082.88;;;26.69;44.00
64080;BME280;51042;49.696;10.808;2023-05-22T10:00:49;98082.28;;;26.22;43.58
64080;BME280;51042;49.696;10.808;2023-05-22T10:03:16;98083.28;;;26.45;43.17
64080;BME280;51042;49.696;10.808;2023-05-22T10:05:47;98077.69;;;26.53;43.35
64080;BME280;51042;49.696;10.808;2023-05-22T10:08:16;98084.75;;;26.46;43.86
64080;BME280;51042;49.696;10.808;2023-05-22T10:10:48;98077.97;;;26.62;43.26
64080;BME280;51042;49.696;10.808;2023-05-22T10:13:16;98078.78;;;26.99;43.15
64080;BME280;51042;49.696;10.808;2023-05-22T10:15:42;98066.63;;;27.55;41.56
64080;BME280;51042;49.696;10.808;2023-05-22T10:18:08;98068.53;;;27.68;43.16
64080;BME280;51042;49.696;10.808;2023-05-22T10:20:34;98063.34;;;28.32;41.78
64080;BME280;51042;49.696;10.808;2023-05-22T10:23:01;98060.16;;;28.51;39.89
64080;BME280;51042;49.696;10.808;2023-05-22T10:25:27;98059.28;;;27.59;40.87
64080;BME280;51042;49.696;10.808;2023-05-22T10:27:54;98055.34;;;27.55;40.71
64080;BME280;51042;49.696;10.808;2023-05-22T10:35:49;98052.06;;;27.36;39.77
64080;BME280;51042;49.696;10.808;2023-05-22T10:41:22;98046.59;;;28.12;39.38
64080;BME280;51042;49.696;10.808;2023-05-22T10:43:48;98054.13;;;28.39;38.05
64080;BME280;51042;49.696;10.808;2023-05-22T10:46:14;98050.94;;;28.20;38.27
64080;BME280;51042;49.696;10.808;2023-05-22T10:48:44;98049.25;;;28.48;37.90
64080;BME280;51042;49.696;10.808;2023-05-22T10:51:11;98051.50;;;28.34;38.51
64080;BME280;51042;49.696;10.808;2023-05-22T10:53:37;98046.56;;;27.96;38.52
64080;BME280;51042;49.696;10.808;2023-05-22T10:56:11;98050.91;;;28.66;38.55
64080;BME280;51042;49.696;10.808;2023-05-22T10:58:38;98050.28;;;28.98;37.74
64080;BME280;51042;49.696;10.808;2023-05-22T11:01:12;98046.22;;;28.76;37.93
64080;BME280;51042;49.696;10.808;2023-05-22T11:03:57;98049.44;;;28.42;37.91
64080;BME280;51042;49.696;10.808;2023-05-22T11:12:12;98046.00;;;28.89;38.08
64080;BME280;51042;49.696;10.808;2023-05-22T11:17:27;98033.41;;;29.30;37.08
64080;BME280;51042;49.696;10.808;2023-05-22T11:22:22;98044.84;;;28.85;37.47
64080;BME280;51042;49.696;10.808;2023-05-22T11:24:47;98036.97;;;29.31;36.28
64080;BME280;51042;49.696;10.808;2023-05-22T11:27:12;98036.88;;;29.06;35.56
64080;BME280;51042;49.696;10.808;2023-05-22T11:29:38;98033.25;;;28.35;36.61
64080;BME280;51042;49.696;10.808;2023-05-22T11:32:06;98042.63;;;28.83;36.00
64080;BME280;51042;49.696;10.808;2023-05-22T11:34:32;98040.28;;;28.97;35.96
64080;BME280;51042;49.696;10.808;2023-05-22T11:36:58;98028.53;;;29.23;36.25
64080;BME280;51042;49.696;10.808;2023-05-22T11:39:24;98027.50;;;29.76;37.23
64080;BME280;51042;49.696;10.808;2023-05-22T11:41:50;98019.00;;;29.76;35.93
64080;BME280;51042;49.696;10.808;2023-05-22T11:44:15;98017.19;;;29.31;35.09
64080;BME280;51042;49.696;10.808;2023-05-22T11:46:40;98017.47;;;29.02;35.45
64080;BME280;51042;49.696;10.808;2023-05-22T11:49:07;98015.84;;;28.92;34.26
64080;BME280;51042;49.696;10.808;2023-05-22T11:51:34;98018.50;;;28.90;35.44
64080;BME280;51042;49.696;10.808;2023-05-22T11:54:02;98003.25;;;29.33;33.04
64080;BME280;51042;49.696;10.808;2023-05-22T11:56:28;98005.59;;;29.11;34.38
64080;BME280;51042;49.696;10.808;2023-05-22T11:58:54;98011.25;;;29.04;35.67
64080;BME280;51042;49.696;10.808;2023-05-22T12:01:19;98008.25;;;29.74;35.02
64080;BME280;51042;49.696;10.808;2023-05-22T12:03:44;98002.59;;;30.49;35.21
64080;BME280;51042;49.696;10.808;2023-05-22T12:06:10;98002.78;;;30.85;34.20
64080;BME280;51042;49.696;10.808;2023-05-22T12:08:35;97996.19;;;31.44;34.24
64080;BME280;51042;49.696;10.808;2023-05-22T12:11:03;97988.16;;;31.77;34.28
64080;BME280;51042;49.696;10.808;2023-05-22T12:13:28;97994.09;;;31.71;33.29
64080;BME280;51042;49.696;10.808;2023-05-22T12:15:58;97993.97;;;32.06;31.76
64080;BME280;51042;49.696;10.808;2023-05-22T12:18:24;97989.50;;;31.49;31.95
64080;BME280;51042;49.696;10.808;2023-05-22T12:20:50;97989.19;;;30.66;34.82
64080;BME280;51042;49.696;10.808;2023-05-22T12:23:24;97997.44;;;30.89;32.34
64080;BME280;51042;49.696;10.808;2023-05-22T12:26:01;98001.06;;;31.34;33.59
64080;BME280;51042;49.696;10.808;2023-05-22T12:28:30;97996.88;;;31.35;31.06
64080;BME280;51042;49.696;10.808;2023-05-22T12:30:55;97992.94;;;30.86;32.43
64080;BME280;51042;49.696;10.808;2023-05-22T12:33:27;97995.63;;;30.67;32.08
64080;BME280;51042;49.696;10.808;2023-05-22T12:35:53;97994.66;;;30.05;32.40
64080;BME280;51042;49.696;10.808;2023-05-22T12:38:26;97978.84;;;30.44;34.08
64080;BME280;51042;49.696;10.808;2023-05-22T12:40:54;97979.53;;;31.04;33.42
64080;BME280;51042;49.696;10.808;2023-05-22T12:43:23;97977.50;;;31.41;33.26
64080;BME280;51042;49.696;10.808;2023-05-22T12:45:49;97981.56;;;31.20;30.73
64080;BME280;51042;49.696;10.808;2023-05-22T12:48:15;97982.09;;;31.09;32.60
64080;BME280;51042;49.696;10.808;2023-05-22T12:50:41;97973.44;;;30.90;31.38
64080;BME280;51042;49.696;10.808;2023-05-22T12:53:08;97972.75;;;30.30;32.11
64080;BME280;51042;49.696;10.808;2023-05-22T12:55:33;97979.34;;;29.58;32.39
64080;BME280;51042;49.696;10.808;2023-05-22T12:57:59;97970.22;;;29.68;32.80
64080;BME280;51042;49.696;10.808;2023-05-22T13:00:24;97982.13;;;29.26;33.18
64080;BME280;51042;49.696;10.808;2023-05-22T13:02:50;97982.38;;;30.27;33.71
64080;BME280;51042;49.696;10.808;2023-05-22T13:05:15;97970.03;;;30.74;34.06
64080;BME280;51042;49.696;10.808;2023-05-22T13:07:41;97968.19;;;31.31;34.21
64080;BME280;51042;49.696;10.808;2023-05-22T13:10:06;97964.22;;;31.70;32.67
64080;BME280;51042;49.696;10.808;2023-05-22T13:12:32;97961.00;;;31.03;32.10
64080;BME280;51042;49.696;10.808;2023-05-22T13:14:58;97957.50;;;30.26;31.89
64080;BME280;51042;49.696;10.808;2023-05-22T13:17:24;97959.22;;;30.21;30.91
64080;BME280;51042;49.696;10.808;2023-05-22T13:19:50;97958.28;;;30.01;31.75